Time;durP1;ratioP1;P1;durP2;ratioP2;P2;SDS_P1;SDS_P2;PMS_P1;PMS_P2;Temp;Humidity;BMP_temperature;BMP_pressure;BME280_temperature;BME280_humidity;BME280_pressure;Samples;Min_cycle;Max_cycle;Signal;HPM_P1;HPM_P2
2023/10/21 00:01:15;;;;;;;15.80;7.35;;;;;;;10.16;100.00;98165.41;5012219;28;20037;-67
2023/10/21 00:03:40;;;;;;;9.82;7.82;;;;;;;10.14;100.00;98168.03;4999916;28;20648;-67
2023/10/21 00:06:06;;;;;;;9.95;8.02;;;;;;;10.15;100.00;98180.06;4993978;28;20477;-67
2023/10/21 00:08:31;;;;;;;11.05;8.45;;;;;;;10.14;100.00;98178.38;5009009;28;20022;-67
2023/10/21 00:11:08;;;;;;;10.68;8.20;;;;;;;10.13;100.00;98178.41;5012764;28;20022;-67
2023/10/21 00:13:33;;;;;;;10.48;8.93;;;;;;;10.12;100.00;98174.06;4999795;28;20080;-67
2023/10/21 00:15:58;;;;;;;9.57;8.20;;;;;;;10.12;100.00;98176.66;5006304;28;20025;-67
2023/10/21 00:18:25;;;;;;;11.57;9.00;;;;;;;10.09;100.00;98186.16;5005928;28;20033;-67
2023/10/21 00:20:53;;;;;;;9.88;8.05;;;;;;;10.11;100.00;98191.31;4997972;28;20052;-67
2023/10/21 00:23:19;;;;;;;13.65;8.80;;;;;;;10.11;100.00;98193.91;5015652;28;20022;-66
2023/10/21 00:25:44;;;;;;;13.57;9.15;;;;;;;10.09;100.00;98191.34;4993912;28;20394;-67
2023/10/21 00:28:10;;;;;;;12.75;8.63;;;;;;;10.10;100.00;98197.38;5017978;28;20029;-67
2023/10/21 00:30:35;;;;;;;10.20;8.75;;;;;;;10.10;100.00;98197.38;4990793;28;20030;-67
2023/10/21 00:33:01;;;;;;;10.40;8.50;;;;;;;10.10;100.00;98215.50;4999491;28;20379;-66
2023/10/21 00:35:26;;;;;;;10.85;9.05;;;;;;;10.12;100.00;98216.34;4999002;28;20058;-67
2023/10/21 00:37:51;;;;;;;9.68;8.68;;;;;;;10.13;100.00;98219.78;5010980;28;20084;-67
2023/10/21 00:40:17;;;;;;;9.68;8.68;;;;;;;10.12;100.00;98225.81;5009422;28;20440;-68
2023/10/21 00:42:42;;;;;;;14.95;9.55;;;;;;;10.14;100.00;98234.44;5026768;28;20144;-67
2023/10/21 00:45:08;;;;;;;11.88;9.30;;;;;;;10.14;100.00;98234.44;5012495;28;20025;-67
2023/10/21 00:47:33;;;;;;;16.27;8.93;;;;;;;10.16;100.00;98240.47;5004894;28;20502;-67
2023/10/21 00:50:01;;;;;;;12.55;8.02;;;;;;;10.18;100.00;98236.13;5016870;28;20034;-67
2023/10/21 00:52:28;;;;;;;10.05;7.63;;;;;;;10.17;100.00;98239.59;5014502;28;20069;-66
2023/10/21 00:54:58;;;;;;;11.20;8.25;;;;;;;10.16;100.00;98246.50;5011121;28;20057;-67
2023/10/21 00:57:23;;;;;;;13.70;8.27;;;;;;;10.18;100.00;98249.09;5011172;28;20034;-67
2023/10/21 00:59:49;;;;;;;11.10;7.70;;;;;;;10.17;100.00;98257.69;5007385;28;20025;-67
2023/10/21 01:02:14;;;;;;;10.00;7.68;;;;;;;10.16;100.00;98254.28;5012853;28;20025;-67
2023/10/21 01:04:41;;;;;;;10.98;7.18;;;;;;;10.16;100.00;98253.41;5018986;28;20310;-66
2023/10/21 01:07:14;;;;;;;11.57;7.65;;;;;;;10.11;100.00;98256.00;5001669;28;20475;-67
2023/10/21 01:09:39;;;;;;;10.68;7.63;;;;;;;10.12;100.00;98268.09;5012985;28;20044;-67
2023/10/21 01:12:05;;;;;;;13.05;7.43;;;;;;;10.08;100.00;98267.25;5007533;28;20097;-67
2023/10/21 01:14:30;;;;;;;12.48;7.95;;;;;;;10.09;100.00;98263.78;5003994;28;20026;-68
2023/10/21 01:16:55;;;;;;;10.40;7.85;;;;;;;10.12;100.00;98272.41;5010636;28;20627;-67
2023/10/21 01:19:21;;;;;;;11.95;7.75;;;;;;;10.13;100.00;98264.63;4996916;28;20037;-67
2023/10/21 01:21:46;;;;;;;11.55;7.93;;;;;;;10.14;100.00;98273.25;4998555;28;20034;-67
2023/10/21 01:24:11;;;;;;;9.32;8.13;;;;;;;10.12;100.00;98262.06;5010833;28;20029;-67
2023/10/21 01:26:36;;;;;;;9.95;8.27;;;;;;;10.12;100.00;98277.56;5005486;28;20406;-67
2023/10/21 01:29:06;;;;;;;9.95;8.95;;;;;;;10.16;100.00;98281.88;5018105;28;20032;-67
2023/10/21 01:31:32;;;;;;;13.93;8.60;;;;;;;10.15;100.00;98286.19;5011193;28;20060;-68
2023/10/21 01:33:58;;;;;;;11.75;9.25;;;;;;;10.16;100.00;98285.34;5012872;28;20041;-67
2023/10/21 01:36:23;;;;;;;13.52;9.20;;;;;;;10.18;100.00;98296.50;5013020;28;20037;-65
2023/10/21 01:38:48;;;;;;;11.10;9.70;;;;;;;10.19;100.00;98290.47;5008225;28;20049;-67
2023/10/21 01:41:13;;;;;;;12.93;9.82;;;;;;;10.19;100.00;98285.31;5016018;28;20058;-67
2023/10/21 01:43:40;;;;;;;12.93;10.18;;;;;;;10.22;100.00;98299.94;5022639;28;20045;-67
2023/10/21 01:46:05;;;;;;;11.50;8.93;;;;;;;10.24;100.00;98290.44;4998704;28;20100;-67
2023/10/21 01:48:30;;;;;;;13.18;9.05;;;;;;;10.26;100.00;98296.47;5012093;28;20474;-67
2023/10/21 01:51:00;;;;;;;15.15;10.63;;;;;;;10.26;100.00;98291.28;5017692;28;20535;-67
2023/10/21 01:53:26;;;;;;;10.93;9.80;;;;;;;10.29;100.00;98296.44;5009002;28;20025;-67
2023/10/21 01:55:59;;;;;;;14.90;10.27;;;;;;;10.28;100.00;98302.50;5010267;28;20034;-68
2023/10/21 01:58:25;;;;;;;12.95;10.85;;;;;;;10.30;100.00;98305.06;5008401;28;20041;-67
2023/10/21 02:00:50;;;;;;;12.55;9.82;;;;;;;10.31;100.00;98309.34;5025820;28;20026;-67
2023/10/21 02:03:15;;;;;;;12.90;9.85;;;;;;;10.30;100.00;98318.88;5016095;28;20030;-67
2023/10/21 02:05:41;;;;;;;12.88;9.85;;;;;;;10.33;100.00;98311.06;4995671;28;20022;-67
2023/10/21 02:08:06;;;;;;;13.80;9.48;;;;;;;10.33;100.00;98307.63;4997690;28;20022;-68
2023/10/21 02:10:32;;;;;;;12.00;9.88;;;;;;;10.35;100.00;98320.53;5025086;28;20038;-67
2023/10/21 02:12:57;;;;;;;14.90;10.32;;;;;;;10.37;100.00;98319.69;5005653;28;20492;-67
2023/10/21 02:15:22;;;;;;;11.75;10.55;;;;;;;10.37;100.00;98330.03;5013037;28;20488;-67
2023/10/21 02:17:48;;;;;;;11.88;10.00;;;;;;;10.37;100.00;98321.41;5009823;28;20083;-67
2023/10/21 02:20:14;;;;;;;14.70;10.43;;;;;;;10.35;100.00;98329.19;5021552;28;20061;-67
2023/10/21 02:22:40;;;;;;;14.05;9.13;;;;;;;10.37;100.00;98334.34;5004609;28;20635;-66
2023/10/21 02:25:08;;;;;;;10.57;9.10;;;;;;;10.38;100.00;98330.91;4989480;28;20492;-67
2023/10/21 02:27:33;;;;;;;14.15;9.75;;;;;;;10.40;100.00;98344.66;4989986;28;20034;-67
2023/10/21 02:29:59;;;;;;;15.70;10.50;;;;;;;10.41;100.00;98347.28;5013874;28;20040;-66
2023/10/21 02:32:24;;;;;;;11.85;9.65;;;;;;;10.41;100.00;98347.28;5015194;28;20076;-68
2023/10/21 02:34:53;;;;;;;14.00;8.63;;;;;;;10.43;100.00;98355.03;5006506;28;20029;-68
2023/10/21 02:37:19;;;;;;;11.18;8.85;;;;;;;10.43;100.00;98355.84;5022146;28;20022;-67
2023/10/21 02:39:44;;;;;;;10.85;8.82;;;;;;;10.43;100.00;98349.84;5008131;28;20048;-67
2023/10/21 02:42:09;;;;;;;10.50;8.85;;;;;;;10.44;100.00;98352.41;4996302;28;20042;-66
2023/10/21 02:44:35;;;;;;;11.75;8.63;;;;;;;10.44;100.00;98357.59;5009078;28;20180;-65
2023/10/21 02:47:00;;;;;;;10.90;8.18;;;;;;;10.45;100.00;98363.66;5009173;28;20032;-67
2023/10/21 02:49:26;;;;;;;10.13;8.68;;;;;;;10.47;100.00;98361.03;5009416;28;20057;-67
2023/10/21 02:51:51;;;;;;;12.00;8.60;;;;;;;10.45;100.00;98358.47;5008065;28;20029;-68
2023/10/21 02:54:17;;;;;;;10.23;8.75;;;;;;;10.48;100.00;98367.97;5007805;28;20026;-68
2023/10/21 02:56:43;;;;;;;9.52;8.52;;;;;;;10.46;100.00;98362.75;5010474;28;20054;-67
2023/10/21 02:59:08;;;;;;;12.65;8.40;;;;;;;10.47;100.00;98374.81;5009357;28;20233;-67
2023/10/21 03:01:33;;;;;;;11.52;8.35;;;;;;;10.48;100.00;98368.81;5008788;28;20395;-68
2023/10/21 03:03:58;;;;;;;11.43;7.90;;;;;;;10.48;100.00;98371.41;5010023;28;20474;-67
2023/10/21 03:06:24;;;;;;;11.13;8.18;;;;;;;10.48;100.00;98384.34;5007717;28;20032;-68
2023/10/21 03:08:49;;;;;;;11.45;7.97;;;;;;;10.46;100.00;98386.06;5008158;28;20087;-68
2023/10/21 03:11:15;;;;;;;9.48;7.75;;;;;;;10.48;100.00;98388.66;5003009;28;20030;-67
2023/10/21 03:13:40;;;;;;;10.20;8.10;;;;;;;10.47;100.00;98398.13;4999870;28;20374;-67
2023/10/21 03:16:16;;;;;;;14.15;8.40;;;;;;;10.46;100.00;98401.59;5005875;28;20021;-68
2023/10/21 03:18:42;;;;;;;9.63;8.73;;;;;;;10.47;100.00;98395.53;4994836;28;20068;-65
2023/10/21 03:21:08;;;;;;;12.43;8.20;;;;;;;10.48;100.00;98399.91;4995363;28;20033;-67
2023/10/21 03:23:34;;;;;;;9.20;7.70;;;;;;;10.51;100.00;98394.69;5007527;28;20036;-67
2023/10/21 03:26:02;;;;;;;9.55;7.47;;;;;;;10.50;100.00;98398.16;5007845;28;20479;-67
2023/10/21 03:28:28;;;;;;;10.00;7.57;;;;;;;10.51;100.00;98399.88;4994370;28;20514;-68
2023/10/21 03:30:57;;;;;;;9.13;7.88;;;;;;;10.52;100.00;98404.16;4996243;28;20109;-67
2023/10/21 03:33:26;;;;;;;11.10;7.15;;;;;;;10.54;100.00;98410.19;5018353;28;20553;-67
2023/10/21 03:35:52;;;;;;;11.40;7.18;;;;;;;10.54;100.00;98412.78;4997060;28;20061;-66
2023/10/21 03:38:19;;;;;;;8.07;6.22;;;;;;;10.56;100.00;98418.81;4998854;28;20037;-68
2023/10/21 03:40:44;;;;;;;10.73;7.75;;;;;;;10.57;100.00;98428.31;4993107;28;20034;-67
2023/10/21 03:43:09;;;;;;;9.68;6.32;;;;;;;10.59;100.00;98430.91;5006361;28;20554;-68
2023/10/21 03:45:36;;;;;;;12.38;6.43;;;;;;;10.60;100.00;98432.59;5014570;28;20120;-68
2023/10/21 03:48:02;;;;;;;9.55;6.95;;;;;;;10.63;100.00;98430.00;5000589;28;20032;-68
2023/10/21 03:50:28;;;;;;;7.88;6.20;;;;;;;10.65;100.00;98437.78;5006909;28;20058;-67
2023/10/21 03:52:53;;;;;;;8.98;5.60;;;;;;;10.66;100.00;98442.06;4993215;28;20435;-67
2023/10/21 03:55:19;;;;;;;12.40;6.65;;;;;;;10.68;100.00;98442.94;4993191;28;20037;-67
2023/10/21 03:57:44;;;;;;;9.48;6.40;;;;;;;10.70;100.00;98441.19;5013686;28;20429;-67
2023/10/21 04:00:12;;;;;;;8.38;5.78;;;;;;;10.69;100.00;98447.22;5001051;28;20301;-66
2023/10/21 04:02:37;;;;;;;9.00;5.85;;;;;;;10.71;100.00;98458.44;5006932;28;20045;-66
2023/10/21 04:05:06;;;;;;;9.82;5.82;;;;;;;10.69;100.00;98457.59;4993446;28;20022;-66
2023/10/21 04:07:32;;;;;;;10.13;6.00;;;;;;;10.69;100.00;98461.03;5001178;28;20044;-68
2023/10/21 04:09:57;;;;;;;9.45;5.88;;;;;;;10.70;100.00;98467.09;5020427;28;20022;-67
2023/10/21 04:12:22;;;;;;;9.70;5.40;;;;;;;10.68;100.00;98474.88;5008946;28;20026;-68
2023/10/21 04:14:47;;;;;;;11.23;5.90;;;;;;;10.69;100.00;98475.72;5014980;28;20057;-66
2023/10/21 04:17:13;;;;;;;8.02;5.97;;;;;;;10.70;100.00;98477.44;5007075;28;20025;-67
2023/10/21 04:19:39;;;;;;;7.35;6.10;;;;;;;10.68;100.00;98479.19;5007293;28;20084;-66
2023/10/21 04:22:04;;;;;;;10.57;6.80;;;;;;;10.69;100.00;98486.06;5008391;28;20013;-67
2023/10/21 04:24:30;;;;;;;7.47;5.57;;;;;;;10.71;100.00;98488.66;5010552;28;20021;-67
2023/10/21 04:26:55;;;;;;;11.10;6.45;;;;;;;10.73;100.00;98498.16;5012966;28;20462;-68
2023/10/21 04:29:20;;;;;;;9.23;6.57;;;;;;;10.76;100.00;98485.16;5010255;28;20298;-65
2023/10/21 04:31:46;;;;;;;9.55;6.65;;;;;;;10.78;100.00;98496.38;5016181;28;20032;-66
2023/10/21 04:34:12;;;;;;;12.95;6.63;;;;;;;10.80;100.00;98502.44;4991861;28;20453;-67
2023/10/21 04:36:38;;;;;;;9.40;6.15;;;;;;;10.81;100.00;98517.09;5004673;28;20032;-67
2023/10/21 04:39:03;;;;;;;11.07;6.78;;;;;;;10.84;100.00;98510.16;5030714;28;20489;-67
2023/10/21 04:41:29;;;;;;;11.73;5.95;;;;;;;10.83;100.00;98522.25;5016307;28;20049;-67
2023/10/21 04:43:55;;;;;;;10.90;6.25;;;;;;;10.83;100.00;98524.84;5004995;28;20470;-67
2023/10/21 04:46:20;;;;;;;8.32;6.38;;;;;;;10.83;100.00;98524.84;5023270;28;20026;-67
2023/10/21 04:48:45;;;;;;;13.90;6.93;;;;;;;10.84;100.00;98525.72;5023889;28;20087;-67
2023/10/21 04:51:11;;;;;;;9.27;6.03;;;;;;;10.81;100.00;98526.63;5003334;28;20040;-67
2023/10/21 04:53:37;;;;;;;10.13;6.40;;;;;;;10.81;100.00;98542.16;4991392;28;20073;-67
2023/10/21 04:56:03;;;;;;;7.40;6.03;;;;;;;10.79;100.00;98539.53;4991036;28;20019;-67
2023/10/21 04:58:28;;;;;;;12.07;6.18;;;;;;;10.80;100.00;98549.06;5016770;28;20026;-67
2023/10/21 05:00:53;;;;;;;11.57;6.15;;;;;;;10.78;100.00;98542.16;4990675;28;20034;-67
2023/10/21 05:03:18;;;;;;;8.57;5.43;;;;;;;10.76;100.00;98549.94;5005116;28;20474;-67
2023/10/21 05:05:44;;;;;;;9.52;5.70;;;;;;;10.74;100.00;98540.47;5016885;28;20042;-67
2023/10/21 05:08:09;;;;;;;8.68;5.88;;;;;;;10.73;100.00;98542.19;5016988;28;20516;-67
2023/10/21 05:10:34;;;;;;;6.43;5.20;;;;;;;10.72;100.00;98552.56;5009754;28;20034;-68
2023/10/21 05:13:00;;;;;;;11.32;5.57;;;;;;;10.70;100.00;98555.16;5009148;28;20038;-65
2023/10/21 05:15:25;;;;;;;10.30;5.43;;;;;;;10.69;100.00;98561.19;5015295;28;20034;-68
2023/10/21 05:17:50;;;;;;;10.27;5.60;;;;;;;10.68;100.00;98562.94;5016806;28;20049;-66
2023/10/21 05:20:15;;;;;;;9.32;4.68;;;;;;;10.68;100.00;98567.25;5016416;28;20508;-68
2023/10/21 05:22:41;;;;;;;14.23;6.18;;;;;;;10.65;100.00;98573.28;5009862;28;20072;-68
2023/10/21 05:25:09;;;;;;;7.70;5.63;;;;;;;10.63;100.00;98571.59;5009541;28;20287;-67
2023/10/21 05:27:34;;;;;;;9.50;5.70;;;;;;;10.60;100.00;98577.63;5009230;28;20429;-67
2023/10/21 05:30:00;;;;;;;9.35;5.43;;;;;;;10.61;100.00;98581.09;5010019;28;20215;-66
2023/10/21 05:32:25;;;;;;;9.18;5.82;;;;;;;10.55;100.00;98585.44;5021656;28;20390;-67
2023/10/21 05:34:50;;;;;;;8.73;6.07;;;;;;;10.54;100.00;98590.63;5010843;28;20033;-65
2023/10/21 05:37:16;;;;;;;7.30;5.93;;;;;;;10.53;100.00;98594.94;5007111;28;20041;-65
2023/10/21 05:39:41;;;;;;;9.95;5.95;;;;;;;10.54;100.00;98599.25;5005347;28;20028;-66
2023/10/21 05:42:06;;;;;;;6.90;6.25;;;;;;;10.54;100.00;98603.56;5007075;28;20092;-67
2023/10/21 05:44:31;;;;;;;9.55;5.93;;;;;;;10.51;100.00;98607.03;5012394;28;20477;-66
2023/10/21 05:46:58;;;;;;;7.80;5.85;;;;;;;10.53;100.00;98610.47;5015669;28;20029;-67
2023/10/21 05:49:23;;;;;;;12.07;6.18;;;;;;;10.55;100.00;98606.16;5024541;28;20363;-66
2023/10/21 05:51:49;;;;;;;11.80;6.53;;;;;;;10.59;100.00;98619.97;5025638;28;20021;-67
2023/10/21 05:54:14;;;;;;;9.02;6.13;;;;;;;10.63;100.00;98615.63;5011584;28;20029;-68
2023/10/21 05:56:39;;;;;;;13.90;6.88;;;;;;;10.67;100.00;98622.50;5018234;28;20037;-67
2023/10/21 05:59:04;;;;;;;7.80;5.97;;;;;;;10.70;100.00;98622.50;5013091;28;20268;-67
2023/10/21 06:01:31;;;;;;;8.13;6.45;;;;;;;10.73;100.00;98627.66;5007093;28;20458;-66
2023/10/21 06:03:56;;;;;;;8.73;6.32;;;;;;;10.74;100.00;98631.97;5012850;28;20025;-67
2023/10/21 06:06:22;;;;;;;9.13;6.78;;;;;;;10.76;100.00;98629.38;5015806;28;20079;-65
2023/10/21 06:08:48;;;;;;;13.48;6.85;;;;;;;10.77;100.00;98642.34;5005259;28;20037;-67
2023/10/21 06:11:13;;;;;;;10.02;6.72;;;;;;;10.79;100.00;98645.75;5014616;28;20429;-67
2023/10/21 06:13:39;;;;;;;12.35;6.78;;;;;;;10.83;100.00;98653.53;5009859;28;20159;-66
2023/10/21 06:16:04;;;;;;;11.00;6.63;;;;;;;10.85;100.00;98651.81;5013596;28;20029;-66
2023/10/21 06:18:29;;;;;;;9.75;6.47;;;;;;;10.87;100.00;98665.59;5004810;28;20501;-67
2023/10/21 06:20:55;;;;;;;8.50;6.18;;;;;;;10.91;100.00;98667.31;4992818;28;20274;-66
2023/10/21 06:23:21;;;;;;;10.25;6.28;;;;;;;10.93;100.00;98665.59;5015121;28;20512;-66
2023/10/21 06:25:47;;;;;;;10.20;6.57;;;;;;;10.95;100.00;98668.16;4993407;28;20022;-67
2023/10/21 06:28:15;;;;;;;8.35;6.40;;;;;;;10.97;100.00;98672.50;4996069;28;20030;-67
2023/10/21 06:30:40;;;;;;;10.48;6.40;;;;;;;11.00;100.00;98682.84;4993493;28;20032;-67
2023/10/21 06:33:06;;;;;;;13.13;7.15;;;;;;;11.03;100.00;98689.72;5003002;28;20026;-67
2023/10/21 06:35:32;;;;;;;8.10;6.00;;;;;;;11.05;100.00;98686.25;4996641;28;20037;-67
2023/10/21 06:37:58;;;;;;;10.65;6.05;;;;;;;11.09;100.00;98701.78;5005140;28;20466;-68
2023/10/21 06:40:23;;;;;;;12.32;6.32;;;;;;;11.12;100.00;98706.97;5020586;28;20104;-66
2023/10/21 06:42:49;;;;;;;12.55;6.47;;;;;;;11.17;100.00;98715.59;5009776;28;20049;-67
2023/10/21 06:45:14;;;;;;;11.50;6.03;;;;;;;11.20;100.00;98705.22;5009719;28;20356;-67
2023/10/21 06:47:40;;;;;;;13.15;6.25;;;;;;;11.24;100.00;98712.09;4996646;28;20018;-68
2023/10/21 06:50:05;;;;;;;13.95;6.95;;;;;;;11.28;100.00;98719.00;5017377;28;20057;-68
2023/10/21 06:52:31;;;;;;;10.35;6.70;;;;;;;11.33;100.00;98720.72;5000868;28;20061;-68
2023/10/21 06:54:57;;;;;;;8.32;5.63;;;;;;;11.35;100.00;98724.16;5004292;28;20355;-67
2023/10/21 06:57:22;;;;;;;11.10;6.43;;;;;;;11.39;100.00;98733.63;5019664;28;20425;-66
2023/10/21 06:59:48;;;;;;;11.45;5.95;;;;;;;11.41;100.00;98734.50;4998777;28;20025;-68
2023/10/21 07:02:13;;;;;;;7.88;4.95;;;;;;;11.44;100.00;98738.81;5014465;28;20017;-67
2023/10/21 07:04:38;;;;;;;9.85;5.38;;;;;;;11.46;100.00;98748.28;5009919;28;20497;-68
2023/10/21 07:07:04;;;;;;;9.73;4.63;;;;;;;11.49;100.00;98753.47;5011437;28;20489;-66
2023/10/21 07:09:32;;;;;;;10.73;4.43;;;;;;;11.51;100.00;98756.91;5018110;28;20045;-67
2023/10/21 07:11:57;;;;;;;8.52;4.47;;;;;;;11.53;100.00;98762.13;5010579;28;20057;-67
2023/10/21 07:14:23;;;;;;;6.20;3.35;;;;;;;11.56;100.00;98775.06;5006083;28;20026;-67
2023/10/21 07:16:48;;;;;;;5.88;3.38;;;;;;;11.58;100.00;98772.44;5010038;28;20068;-67
2023/10/21 07:19:13;;;;;;;5.60;3.25;;;;;;;11.59;100.00;98782.81;4994142;28;20022;-67
2023/10/21 07:21:39;;;;;;;5.32;3.00;;;;;;;11.60;100.00;98796.66;4997403;28;20146;-66
2023/10/21 07:24:06;;;;;;;6.53;3.05;;;;;;;11.61;100.00;98798.38;5006404;28;20049;-66
2023/10/21 07:26:32;;;;;;;6.20;3.60;;;;;;;11.56;100.00;98806.19;5008337;28;20030;-68
2023/10/21 07:28:58;;;;;;;5.57;3.95;;;;;;;11.55;100.00;98821.75;5003170;28;20065;-67
2023/10/21 07:31:23;;;;;;;2.53;2.30;;;;;;;11.52;100.00;98833.88;5001977;28;20041;-67
2023/10/21 07:33:51;;;;;;;2.58;1.80;;;;;;;11.46;100.00;98840.81;4999298;28;20030;-68
2023/10/21 07:36:16;;;;;;;3.83;1.60;;;;;;;11.39;100.00;98853.78;5013505;28;20038;-68
2023/10/21 07:38:42;;;;;;;4.10;1.40;;;;;;;11.41;100.00;98858.97;5015800;28;20398;-67
2023/10/21 07:41:11;;;;;;;2.50;0.93;;;;;;;11.41;100.00;98866.75;5012513;28;20134;-67
2023/10/21 07:43:37;;;;;;;0.95;0.82;;;;;;;11.36;100.00;98876.28;5026205;28;20110;-67
2023/10/21 07:46:03;;;;;;;3.13;0.57;;;;;;;11.35;100.00;98882.34;5015464;28;20026;-67
2023/10/21 07:48:28;;;;;;;4.03;0.60;;;;;;;11.37;100.00;98880.59;5000455;28;20041;-67
2023/10/21 07:50:54;;;;;;;1.77;0.68;;;;;;;11.40;100.00;98889.22;5007703;28;20018;-67
2023/10/21 07:53:20;;;;;;;1.25;0.52;;;;;;;11.43;100.00;98898.72;5007820;28;20034;-66
2023/10/21 07:55:47;;;;;;;1.27;0.60;;;;;;;11.50;100.00;98905.63;5020674;28;20549;-66
2023/10/21 07:58:12;;;;;;;2.83;0.70;;;;;;;11.53;100.00;98907.38;5020252;28;20115;-65
2023/10/21 08:00:39;;;;;;;2.13;0.70;;;;;;;11.56;100.00;98922.03;5001423;28;20029;-68
2023/10/21 08:03:05;;;;;;;1.77;1.10;;;;;;;11.61;100.00;98917.69;5026216;28;20013;-68
2023/10/21 08:05:30;;;;;;;1.65;0.60;;;;;;;11.66;100.00;98923.72;4994824;28;20025;-68
2023/10/21 08:07:55;;;;;;;0.60;0.60;;;;;;;11.71;100.00;98934.13;5020361;28;20025;-67
2023/10/21 08:10:21;;;;;;;1.77;0.55;;;;;;;11.73;100.00;98933.22;5020072;28;20053;-67
2023/10/21 08:12:47;;;;;;;1.45;0.57;;;;;;;11.75;100.00;98936.69;5021261;28;20056;-67
2023/10/21 08:15:12;;;;;;;1.77;0.70;;;;;;;11.81;100.00;98940.13;5018937;28;20575;-67
2023/10/21 08:17:38;;;;;;;0.88;0.30;;;;;;;11.87;100.00;98940.13;5006755;28;20034;-67
2023/10/21 08:20:04;;;;;;;2.05;0.50;;;;;;;11.93;100.00;98947.88;5007475;28;20017;-68
2023/10/21 08:22:30;;;;;;;1.33;0.50;;;;;;;11.91;100.00;98957.38;5002518;28;20022;-67
2023/10/21 08:24:55;;;;;;;1.90;0.43;;;;;;;11.95;100.00;98948.72;4999669;28;20018;-67
2023/10/21 08:27:21;;;;;;;2.92;0.57;;;;;;;11.97;100.00;98952.19;4998935;28;20032;-67
2023/10/21 08:29:48;;;;;;;0.95;0.47;;;;;;;12.05;100.00;98959.06;5024294;28;20027;-66
2023/10/21 08:32:13;;;;;;;2.70;0.50;;;;;;;12.09;100.00;98955.56;5020652;28;20029;-66
2023/10/21 08:34:38;;;;;;;3.67;0.47;;;;;;;12.27;100.00;98953.81;5011799;28;20041;-67
2023/10/21 08:37:04;;;;;;;0.80;0.50;;;;;;;12.55;100.00;98956.25;5015730;28;20025;-67
2023/10/21 08:39:30;;;;;;;1.70;0.40;;;;;;;12.74;100.00;98959.59;5020426;28;20022;-67
2023/10/21 08:41:56;;;;;;;1.00;0.55;;;;;;;12.72;100.00;98967.41;5018972;28;20517;-66
2023/10/21 08:44:22;;;;;;;2.63;0.60;;;;;;;12.69;100.00;98971.75;5007984;28;20026;-67
2023/10/21 08:46:49;;;;;;;2.00;0.50;;;;;;;12.80;100.00;98976.88;5007100;28;20034;-67
2023/10/21 08:49:17;;;;;;;1.45;0.43;;;;;;;12.78;100.00;98971.69;5020040;28;20018;-67
2023/10/21 08:51:45;;;;;;;0.90;0.40;;;;;;;12.67;100.00;98976.09;5006621;28;20038;-67
2023/10/21 08:54:12;;;;;;;1.63;0.30;;;;;;;12.55;100.00;98974.44;5006463;28;20029;-66
2023/10/21 08:56:38;;;;;;;1.88;0.50;;;;;;;12.49;100.00;98993.53;5005624;28;20395;-66
2023/10/21 08:59:03;;;;;;;0.80;0.50;;;;;;;12.42;100.00;98990.09;4998067;28;20113;-67
2023/10/21 09:01:29;;;;;;;2.28;0.40;;;;;;;12.39;100.00;98999.63;5017275;28;20120;-67
2023/10/21 09:03:56;;;;;;;1.48;0.40;;;;;;;12.44;100.00;98997.88;5019719;28;20030;-68
2023/10/21 09:06:21;;;;;;;0.35;0.30;;;;;;;12.45;100.00;99005.66;5006518;28;20029;-66
2023/10/21 09:08:48;;;;;;;1.98;0.55;;;;;;;12.48;100.00;99010.81;4996789;28;20041;-67
2023/10/21 09:11:18;;;;;;;2.53;0.47;;;;;;;12.52;100.00;99011.69;5008766;28;20100;-65
2023/10/21 09:13:44;;;;;;;2.60;0.47;;;;;;;12.56;100.00;99017.72;4990719;28;20026;-66
2023/10/21 09:16:27;;;;;;;2.00;0.40;;;;;;;12.64;100.00;99026.34;5018247;28;20760;-67
2023/10/21 09:19:07;;;;;;;2.92;0.52;;;;;;;12.65;100.00;99027.19;5025672;28;20029;-67
2023/10/21 09:21:34;;;;;;;1.25;0.60;;;;;;;12.63;100.00;99032.41;5009215;28;20037;-67
2023/10/21 09:24:04;;;;;;;1.42;0.45;;;;;;;12.63;100.00;99023.78;5017799;28;20029;-66
2023/10/21 09:26:33;;;;;;;1.85;0.50;;;;;;;12.59;100.00;99038.50;5016063;28;20465;-67
2023/10/21 09:29:12;;;;;;;2.45;0.47;;;;;;;12.55;100.00;99029.88;5016407;28;20482;-66
2023/10/21 09:31:54;;;;;;;1.73;0.40;;;;;;;12.57;100.00;99035.06;5010542;28;20034;-67
2023/10/21 09:34:31;;;;;;;2.15;0.50;;;;;;;12.57;100.00;99029.88;5003077;28;20035;-66
2023/10/21 09:37:04;;;;;;;2.40;0.70;;;;;;;12.55;100.00;99034.19;5010261;28;20041;-66
2023/10/21 09:39:36;;;;;;;3.38;0.73;;;;;;;12.55;100.00;99036.78;5026143;28;20024;-67
2023/10/21 09:42:03;;;;;;;1.63;0.60;;;;;;;12.55;100.00;99036.78;5016431;28;20126;-67
2023/10/21 09:44:29;;;;;;;3.05;0.73;;;;;;;12.60;100.00;99038.50;5020069;28;20026;-67
2023/10/21 09:46:57;;;;;;;1.48;0.50;;;;;;;12.64;100.00;99041.06;5028938;28;20086;-68
2023/10/21 09:49:24;;;;;;;4.65;0.68;;;;;;;12.66;100.00;99050.59;5021782;28;20132;-67
2023/10/21 09:52:03;;;;;;;3.15;0.60;;;;;;;12.67;100.00;99049.72;5022354;28;20377;-67
2023/10/21 09:54:51;;;;;;;2.30;0.60;;;;;;;12.66;100.00;99065.31;5012452;28;20529;-67
2023/10/21 09:57:18;;;;;;;2.92;0.65;;;;;;;12.65;100.00;99072.25;5009662;28;20029;-66
2023/10/21 09:59:46;;;;;;;3.35;0.50;;;;;;;12.66;100.00;99066.19;5011697;28;20017;-67
2023/10/21 10:02:12;;;;;;;2.83;0.40;;;;;;;12.65;100.00;99074.84;5013138;28;20030;-66
2023/10/21 10:04:38;;;;;;;1.92;0.45;;;;;;;12.71;100.00;99087.81;5009904;28;20091;-68
2023/10/21 10:07:07;;;;;;;1.27;0.50;;;;;;;12.70;100.00;99091.28;5015949;28;20548;-68
2023/10/21 10:09:42;;;;;;;3.30;0.70;;;;;;;12.67;100.00;99086.09;5003635;28;20053;-68
2023/10/21 10:12:14;;;;;;;1.73;0.50;;;;;;;12.69;100.00;99092.16;5006015;28;20023;-67
2023/10/21 10:14:39;;;;;;;2.05;0.65;;;;;;;12.71;100.00;99093.03;5010222;28;20129;-67
2023/10/21 10:17:07;;;;;;;3.55;0.70;;;;;;;12.78;100.00;99092.97;5022593;28;20101;-66
2023/10/21 10:19:40;;;;;;;2.65;0.60;;;;;;;12.82;100.00;99105.97;5012076;28;20044;-67
2023/10/21 10:22:29;;;;;;;2.42;0.80;;;;;;;12.83;100.00;99102.47;5007668;28;20056;-67
2023/10/21 10:24:55;;;;;;;5.03;1.00;;;;;;;12.89;100.00;99104.19;5015010;28;20033;-68
2023/10/21 10:27:34;;;;;;;2.85;0.77;;;;;;;12.93;100.00;99105.88;5005232;28;20025;-65
2023/10/21 10:29:59;;;;;;;3.03;0.60;;;;;;;12.97;100.00;99109.34;5011808;28;20021;-67
2023/10/21 10:32:29;;;;;;;1.98;0.60;;;;;;;13.05;100.00;99114.50;5006358;28;20367;-67
2023/10/21 10:34:57;;;;;;;5.50;1.17;;;;;;;13.04;100.00;99110.19;5020291;28;20382;-67
2023/10/21 10:37:24;;;;;;;3.70;0.68;;;;;;;13.08;100.00;99104.94;5009862;28;20036;-66
2023/10/21 10:39:49;;;;;;;2.72;0.60;;;;;;;13.11;100.00;99108.41;5010980;28;20386;-67
2023/10/21 10:42:15;;;;;;;2.50;0.88;;;;;;;13.12;100.00;99111.00;5011772;28;20042;-67
2023/10/21 10:44:41;;;;;;;2.00;0.63;;;;;;;13.18;100.00;99116.16;4996611;28;20030;-66
2023/10/21 10:47:08;;;;;;;3.92;0.80;;;;;;;13.23;100.00;99118.72;5018619;28;20033;-67
2023/10/21 10:49:53;;;;;;;3.40;0.63;;;;;;;13.27;100.00;99129.97;5008834;28;20092;-67
2023/10/21 10:52:31;;;;;;;3.33;0.80;;;;;;;13.31;100.00;99116.09;5015675;28;20387;-66
2023/10/21 10:54:57;;;;;;;3.20;0.65;;;;;;;13.39;100.00;99119.50;5015787;28;20373;-66
2023/10/21 10:57:22;;;;;;;9.25;1.05;;;;;;;13.48;100.00;99125.50;5008790;28;20033;-66
2023/10/21 10:59:49;;;;;;;3.45;0.98;;;;;;;13.55;100.00;99119.41;5005022;28;20533;-66
2023/10/21 11:02:15;;;;;;;4.13;0.88;;;;;;;13.66;100.00;99134.94;4998856;28;20018;-67
2023/10/21 11:04:40;;;;;;;4.82;1.52;;;;;;;13.74;100.00;99132.28;5008211;28;20474;-67
2023/10/21 11:07:09;;;;;;;4.68;1.00;;;;;;;13.79;100.00;99140.91;5010024;28;20029;-66
2023/10/21 11:09:34;;;;;;;3.42;0.68;;;;;;;13.82;100.00;99148.69;5006507;28;20045;-67
2023/10/21 11:12:00;;;;;;;3.15;0.85;;;;;;;13.80;100.00;99140.91;5007502;28;20053;-66
2023/10/21 11:14:27;;;;;;;2.85;0.70;;;;;;;13.84;100.00;99146.06;5006359;28;20127;-66
2023/10/21 11:16:52;;;;;;;4.53;1.00;;;;;;;13.82;100.00;99143.47;5014628;28;20021;-66
2023/10/21 11:19:18;;;;;;;4.47;1.25;;;;;;;13.91;100.00;99145.13;5008158;28;20155;-66